CSAV Rio Maipo — A8GH5 — position and weather

sailwx.info

Track history (hours):
 
Tides and Currents Weather Stations Pressure Air Temp Water Temp Dewpoint Dewpoint Depression Visibility Wind Speed Wind Dir Waves Ship Positions

CSAV Rio Maipo

Last reported at 2014-Nov-26 07:33 UTC. Time now 2014-Nov-26 07:47 UTC.
Position N 22°07' E 113°48'.

Length 210.9 m; beam 32.3 m; draft 12 m.

Type: Cargo ship. MMSI: 636091292.

Date/timePositionNaut miles runAvg speedWind from/ knotsBaromVisibWave heightAir tempDewpointWater temp
2014-Nov-26 07:33N 22°07' E 113°48'1212.1
2014-Nov-26 06:34N 22°19' E 113°48'1514.7
2014-Nov-26 05:34N 22°33' E 113°44'4 0.3
2014-Nov-25 16:06N 22°29' E 113°45'814.0
2014-Nov-25 15:33N 22°21' E 113°47'19 8.1
2014-Nov-25 13:14N 22°08' E 114°02'17112.4
2014-Nov-24 23:30N 22°47' E 117°02'1414.5
2014-Nov-24 22:33N 22°53' E 117°16'1414.1
2014-Nov-24 21:33N 22°58' E 117°30'1614.7
2014-Nov-24 20:29N 23°07' E 117°43'1415.0
2014-Nov-24 19:33N 23°17' E 117°54'1515.0
2014-Nov-24 18:34N 23°28' E 118°06'1514.1
2014-Nov-24 17:32N 23°38' E 118°17'1413.9
2014-Nov-24 16:33N 23°47' E 118°28'1313.3
2014-Nov-24 15:33N 23°57' E 118°38'1313.2
2014-Nov-24 14:33N 24°06' E 118°48'1513.4
2014-Nov-24 13:23N 24°18' E 118°60'1113.6
2014-Nov-24 12:33N 24°25' E 119°09'1413.8
2014-Nov-24 11:31N 24°35' E 119°20'2813.3
2014-Nov-24 09:27N 24°55' E 119°41'30014.3
2014-Nov-23 12:27N 29°11' E 122°36'3215.8
2014-Nov-23 10:25N 29°41' E 122°49'8812.9
2014-Nov-23 03:33N 31°06' E 122°20'1514.8
2014-Nov-23 02:34N 31°14' E 122°05'1414.1
2014-Nov-23 01:33N 31°17' E 121°49'9 9.4
2014-Nov-23 00:34N 31°20' E 121°39'0 0.0
2014-Nov-22 23:32N 31°20' E 121°39'0 0.0
2014-Nov-22 22:32N 31°20' E 121°39'0 0.0
2014-Nov-22 21:32N 31°20' E 121°39'0 0.1
2014-Nov-22 20:32N 31°20' E 121°39'0 0.0
2014-Nov-22 19:32N 31°20' E 121°39'0 0.1
2014-Nov-22 18:32N 31°20' E 121°39'0 0.0
2014-Nov-22 17:23N 31°20' E 121°39'0 0.0
2014-Nov-22 16:32N 31°20' E 121°39'0 0.0
2014-Nov-22 15:32N 31°20' E 121°39'0 0.0
2014-Nov-22 14:29N 31°20' E 121°39'0 0.1
2014-Nov-22 13:32N 31°20' E 121°39'0 0.0
2014-Nov-22 12:29N 31°20' E 121°39'0 0.1
2014-Nov-22 11:32N 31°20' E 121°39'0 0.0
2014-Nov-22 10:29N 31°20' E 121°39'0 0.0
2014-Nov-22 09:32N 31°20' E 121°39'0 0.0
2014-Nov-22 08:26N 31°20' E 121°39'0 0.1
2014-Nov-22 07:32N 31°20' E 121°39'0 0.0
2014-Nov-22 06:29N 31°20' E 121°39'0 0.0
2014-Nov-22 05:32N 31°20' E 121°39'0 0.1
2014-Nov-22 04:32N 31°20' E 121°39'0 0.0
2014-Nov-22 03:32N 31°20' E 121°39'0 0.1
2014-Nov-22 02:32N 31°20' E 121°39'0 0.1
2014-Nov-22 01:31N 31°20' E 121°39'0 0.0
2014-Nov-22 00:31N 31°20' E 121°39'0 0.1
2014-Nov-21 23:28N 31°20' E 121°39'0 0.0
2014-Nov-21 22:28N 31°20' E 121°39'0 0.0
2014-Nov-21 21:31N 31°20' E 121°39'0 0.0
2014-Nov-21 20:28N 31°20' E 121°39'0 0.1
2014-Nov-21 19:28N 31°20' E 121°39'0 0.0
2014-Nov-21 18:28N 31°20' E 121°39'0 0.0
2014-Nov-21 17:31N 31°20' E 121°39'0 0.0
2014-Nov-21 16:31N 31°20' E 121°39'0 0.0
2014-Nov-21 15:31N 31°20' E 121°39'1 0.9
2014-Nov-21 14:33N 31°21' E 121°39'4 3.8
2014-Nov-21 13:33N 31°20' E 121°43'1010.1
2014-Nov-21 12:33N 31°16' E 121°54'1212.0
2014-Nov-21 11:33N 31°13' E 122°07'1313.4
2014-Nov-21 10:34N 31°06' E 122°21'10 9.5
2014-Nov-21 09:33N 31°06' E 122°32'8611.9
2014-Nov-21 02:19N 29°42' E 122°49'1114.3
2014-Nov-21 01:33N 29°33' E 122°41'2114.3
2014-Nov-21 00:04N 29°12' E 122°38'33414.0
2014-Nov-20 00:09N 24°31' E 119°16'5814.3
2014-Nov-19 20:05N 23°50' E 118°31'814.4
2014-Nov-19 19:30N 23°44' E 118°24'25212.0
2014-Nov-18 22:33N 22°19' E 114°07'1 0.1
2014-Nov-18 00:26N 22°20' E 114°08'0 0.0
2014-Nov-17 22:20N 22°20' E 114°08'0 0.0
2014-Nov-17 15:12N 22°20' E 114°08'0 0.0
2014-Nov-17 14:12N 22°20' E 114°08'0 0.0
2014-Nov-17 12:12N 22°20' E 114°08'0 0.0
2014-Nov-17 11:24N 22°20' E 114°08'1 0.5
2014-Nov-17 09:31N 22°19' E 114°07'  
Track history (hours):
 
Tides and Currents Weather Stations Pressure Air Temp Water Temp Dewpoint Dewpoint Depression Visibility Wind Speed Wind Dir Waves Ship Positions

CSAV Rio Maipo

Last reported at 2014-Nov-26 07:33 UTC. Time now 2014-Nov-26 07:47 UTC.
Position N 22°07' E 113°48'.

Length 210.9 m; beam 32.3 m; draft 12 m.

Type: Cargo ship. MMSI: 636091292.

Date/timePositionNaut miles runAvg speedWind from/ knotsBaromVisibWave heightAir tempDewpointWater temp
2014-Nov-26 07:33N 22°07' E 113°48'1212.1
2014-Nov-26 06:34N 22°19' E 113°48'1514.7
2014-Nov-26 05:34N 22°33' E 113°44'4 0.3
2014-Nov-25 16:06N 22°29' E 113°45'814.0
2014-Nov-25 15:33N 22°21' E 113°47'19 8.1
2014-Nov-25 13:14N 22°08' E 114°02'17112.4
2014-Nov-24 23:30N 22°47' E 117°02'1414.5
2014-Nov-24 22:33N 22°53' E 117°16'1414.1
2014-Nov-24 21:33N 22°58' E 117°30'1614.7
2014-Nov-24 20:29N 23°07' E 117°43'1415.0
2014-Nov-24 19:33N 23°17' E 117°54'1515.0
2014-Nov-24 18:34N 23°28' E 118°06'1514.1
2014-Nov-24 17:32N 23°38' E 118°17'1413.9
2014-Nov-24 16:33N 23°47' E 118°28'1313.3
2014-Nov-24 15:33N 23°57' E 118°38'1313.2
2014-Nov-24 14:33N 24°06' E 118°48'1513.4
2014-Nov-24 13:23N 24°18' E 118°60'1113.6
2014-Nov-24 12:33N 24°25' E 119°09'1413.8
2014-Nov-24 11:31N 24°35' E 119°20'2813.3
2014-Nov-24 09:27N 24°55' E 119°41'30014.3
2014-Nov-23 12:27N 29°11' E 122°36'3215.8
2014-Nov-23 10:25N 29°41' E 122°49'8812.9
2014-Nov-23 03:33N 31°06' E 122°20'1514.8
2014-Nov-23 02:34N 31°14' E 122°05'1414.1
2014-Nov-23 01:33N 31°17' E 121°49'9 9.4
2014-Nov-23 00:34N 31°20' E 121°39'0 0.0
2014-Nov-22 23:32N 31°20' E 121°39'0 0.0
2014-Nov-22 22:32N 31°20' E 121°39'0 0.0
2014-Nov-22 21:32N 31°20' E 121°39'0 0.1
2014-Nov-22 20:32N 31°20' E 121°39'0 0.0
2014-Nov-22 19:32N 31°20' E 121°39'0 0.1
2014-Nov-22 18:32N 31°20' E 121°39'0 0.0
2014-Nov-22 17:23N 31°20' E 121°39'0 0.0
2014-Nov-22 16:32N 31°20' E 121°39'0 0.0
2014-Nov-22 15:32N 31°20' E 121°39'0 0.0
2014-Nov-22 14:29N 31°20' E 121°39'0 0.1
2014-Nov-22 13:32N 31°20' E 121°39'0 0.0
2014-Nov-22 12:29N 31°20' E 121°39'0 0.1
2014-Nov-22 11:32N 31°20' E 121°39'0 0.0
2014-Nov-22 10:29N 31°20' E 121°39'0 0.0
2014-Nov-22 09:32N 31°20' E 121°39'0 0.0
2014-Nov-22 08:26N 31°20' E 121°39'0 0.1
2014-Nov-22 07:32N 31°20' E 121°39'0 0.0
2014-Nov-22 06:29N 31°20' E 121°39'0 0.0
2014-Nov-22 05:32N 31°20' E 121°39'0 0.1
2014-Nov-22 04:32N 31°20' E 121°39'0 0.0
2014-Nov-22 03:32N 31°20' E 121°39'0 0.1
2014-Nov-22 02:32N 31°20' E 121°39'0 0.1
2014-Nov-22 01:31N 31°20' E 121°39'0 0.0
2014-Nov-22 00:31N 31°20' E 121°39'0 0.1
2014-Nov-21 23:28N 31°20' E 121°39'0 0.0
2014-Nov-21 22:28N 31°20' E 121°39'0 0.0
2014-Nov-21 21:31N 31°20' E 121°39'0 0.0
2014-Nov-21 20:28N 31°20' E 121°39'0 0.1
2014-Nov-21 19:28N 31°20' E 121°39'0 0.0
2014-Nov-21 18:28N 31°20' E 121°39'0 0.0
2014-Nov-21 17:31N 31°20' E 121°39'0 0.0
2014-Nov-21 16:31N 31°20' E 121°39'0 0.0
2014-Nov-21 15:31N 31°20' E 121°39'1 0.9
2014-Nov-21 14:33N 31°21' E 121°39'4 3.8
2014-Nov-21 13:33N 31°20' E 121°43'1010.1
2014-Nov-21 12:33N 31°16' E 121°54'1212.0
2014-Nov-21 11:33N 31°13' E 122°07'1313.4
2014-Nov-21 10:34N 31°06' E 122°21'10 9.5
2014-Nov-21 09:33N 31°06' E 122°32'8611.9
2014-Nov-21 02:19N 29°42' E 122°49'1114.3
2014-Nov-21 01:33N 29°33' E 122°41'2114.3
2014-Nov-21 00:04N 29°12' E 122°38'33414.0
2014-Nov-20 00:09N 24°31' E 119°16'5814.3
2014-Nov-19 20:05N 23°50' E 118°31'814.4
2014-Nov-19 19:30N 23°44' E 118°24'25212.0
2014-Nov-18 22:33N 22°19' E 114°07'1 0.1
2014-Nov-18 00:26N 22°20' E 114°08'0 0.0
2014-Nov-17 22:20N 22°20' E 114°08'0 0.0
2014-Nov-17 15:12N 22°20' E 114°08'0 0.0
2014-Nov-17 14:12N 22°20' E 114°08'0 0.0
2014-Nov-17 12:12N 22°20' E 114°08'0 0.0
2014-Nov-17 11:24N 22°20' E 114°08'1 0.5
2014-Nov-17 09:31N 22°19' E 114°07'  

Dump ship's entire track history